sensor_id;sensor_type;location;lat;lon;timestamp;P1;P2;P0
76330;PMS7003;65148;51.912;15.570;2023-12-29T00:14:00;11;10;7
76330;PMS7003;65148;51.912;15.570;2023-12-29T00:33:10;5;5;4
76330;PMS7003;65148;51.912;15.570;2023-12-29T00:48:11;7;5;5
76330;PMS7003;65148;51.912;15.570;2023-12-29T01:03:12;5;5;4
76330;PMS7003;65148;51.912;15.570;2023-12-29T01:18:35;5;4;4
76330;PMS7003;65148;51.912;15.570;2023-12-29T01:33:36;5;5;4
76330;PMS7003;65148;51.912;15.570;2023-12-29T01:48:37;1;1;0
76330;PMS7003;65148;51.912;15.570;2023-12-29T02:03:38;6;6;5
76330;PMS7003;65148;51.912;15.570;2023-12-29T02:19:00;4;4;3
76330;PMS7003;65148;51.912;15.570;2023-12-29T02:34:10;5;5;3
76330;PMS7003;65148;51.912;15.570;2023-12-29T02:49:14;4;4;3
76330;PMS7003;65148;51.912;15.570;2023-12-29T03:04:41;5;5;4
76330;PMS7003;65148;51.912;15.570;2023-12-29T03:19:42;5;5;4
76330;PMS7003;65148;51.912;15.570;2023-12-29T03:34:43;4;4;3
76330;PMS7003;65148;51.912;15.570;2023-12-29T03:49:44;7;7;5
76330;PMS7003;65148;51.912;15.570;2023-12-29T04:05:08;5;5;4
76330;PMS7003;65148;51.912;15.570;2023-12-29T04:20:10;7;7;6
76330;PMS7003;65148;51.912;15.570;2023-12-29T04:35:11;15;11;8
76330;PMS7003;65148;51.912;15.570;2023-12-29T04:50:15;12;11;9
76330;PMS7003;65148;51.912;15.570;2023-12-29T05:05:32;11;11;8
76330;PMS7003;65148;51.912;15.570;2023-12-29T05:20:33;3;3;2
76330;PMS7003;65148;51.912;15.570;2023-12-29T05:35:34;6;4;4
76330;PMS7003;65148;51.912;15.570;2023-12-29T05:50:35;3;2;2
76330;PMS7003;65148;51.912;15.570;2023-12-29T06:05:57;2;2;1
76330;PMS7003;65148;51.912;15.570;2023-12-29T06:20:58;2;2;1
76330;PMS7003;65148;51.912;15.570;2023-12-29T06:35:59;1;1;1
76330;PMS7003;65148;51.912;15.570;2023-12-29T06:51:00;0;0;0
76330;PMS7003;65148;51.912;15.570;2023-12-29T07:06:21;1;1;1
76330;PMS7003;65148;51.912;15.570;2023-12-29T07:21:22;0;0;0
76330;PMS7003;65148;51.912;15.570;2023-12-29T07:36:23;0;0;0
76330;PMS7003;65148;51.912;15.570;2023-12-29T07:51:24;0;0;0
76330;PMS7003;65148;51.912;15.570;2023-12-29T08:06:45;0;0;0
76330;PMS7003;65148;51.912;15.570;2023-12-29T08:21:46;1;1;0
76330;PMS7003;65148;51.912;15.570;2023-12-29T08:36:48;0;0;0
76330;PMS7003;65148;51.912;15.570;2023-12-29T08:51:49;1;1;1
76330;PMS7003;65148;51.912;15.570;2023-12-29T09:07:09;3;3;3
76330;PMS7003;65148;51.912;15.570;2023-12-29T09:22:09;2;1;1
76330;PMS7003;65148;51.912;15.570;2023-12-29T09:37:11;2;2;1
76330;PMS7003;65148;51.912;15.570;2023-12-29T09:52:12;1;1;1
76330;PMS7003;65148;51.912;15.570;2023-12-29T10:07:35;2;2;1
76330;PMS7003;65148;51.912;15.570;2023-12-29T10:23:25;1;1;1
76330;PMS7003;65148;51.912;15.570;2023-12-29T10:37:54;0;0;0
76330;PMS7003;65148;51.912;15.570;2023-12-29T10:53:15;0;0;0
76330;PMS7003;65148;51.912;15.570;2023-12-29T11:08:20;0;0;0
76330;PMS7003;65148;51.912;15.570;2023-12-29T11:23:21;0;0;0
76330;PMS7003;65148;51.912;15.570;2023-12-29T11:53:46;1;1;0
76330;PMS7003;65148;51.912;15.570;2023-12-29T12:08:47;0;0;0
76330;PMS7003;65148;51.912;15.570;2023-12-29T12:23:48;0;0;0
76330;PMS7003;65148;51.912;15.570;2023-12-29T12:38:52;0;0;0
76330;PMS7003;65148;51.912;15.570;2023-12-29T12:54:09;1;1;1
76330;PMS7003;65148;51.912;15.570;2023-12-29T13:09:12;0;0;0
76330;PMS7003;65148;51.912;15.570;2023-12-29T13:24:19;0;0;0
76330;PMS7003;65148;51.912;15.570;2023-12-29T13:55:03;0;0;0
76330;PMS7003;65148;51.912;15.570;2023-12-29T14:10:05;1;0;0
76330;PMS7003;65148;51.912;15.570;2023-12-29T14:25:26;2;1;0
76330;PMS7003;65148;51.912;15.570;2023-12-29T14:40:28;1;0;0
76330;PMS7003;65148;51.912;15.570;2023-12-29T14:55:28;0;0;0
76330;PMS7003;65148;51.912;15.570;2023-12-29T15:10:29;4;4;4
76330;PMS7003;65148;51.912;15.570;2023-12-29T15:25:50;6;4;3
76330;PMS7003;65148;51.912;15.570;2023-12-29T15:40:51;2;2;2
76330;PMS7003;65148;51.912;15.570;2023-12-29T15:55:53;1;1;1
76330;PMS7003;65148;51.912;15.570;2023-12-29T16:10:54;4;4;4
76330;PMS7003;65148;51.912;15.570;2023-12-29T16:26:13;1;1;1
76330;PMS7003;65148;51.912;15.570;2023-12-29T16:41:15;0;0;0
76330;PMS7003;65148;51.912;15.570;2023-12-29T16:56:16;1;1;1
76330;PMS7003;65148;51.912;15.570;2023-12-29T17:11:17;1;1;0
76330;PMS7003;65148;51.912;15.570;2023-12-29T17:26:36;1;1;0
76330;PMS7003;65148;51.912;15.570;2023-12-29T17:41:37;0;0;0
76330;PMS7003;65148;51.912;15.570;2023-12-29T17:56:38;1;0;0
76330;PMS7003;65148;51.912;15.570;2023-12-29T18:11:40;3;3;2
76330;PMS7003;65148;51.912;15.570;2023-12-29T18:26:59;1;1;1
76330;PMS7003;65148;51.912;15.570;2023-12-29T18:42:01;2;1;1
76330;PMS7003;65148;51.912;15.570;2023-12-29T18:57:05;3;3;2
76330;PMS7003;65148;51.912;15.570;2023-12-29T19:12:06;2;2;1
76330;PMS7003;65148;51.912;15.570;2023-12-29T19:27:23;1;1;1
76330;PMS7003;65148;51.912;15.570;2023-12-29T19:42:24;0;0;0
76330;PMS7003;65148;51.912;15.570;2023-12-29T19:57:26;6;6;4
76330;PMS7003;65148;51.912;15.570;2023-12-29T20:12:26;2;1;1
76330;PMS7003;65148;51.912;15.570;2023-12-29T20:27:46;2;2;1
76330;PMS7003;65148;51.912;15.570;2023-12-29T20:42:48;1;1;1
76330;PMS7003;65148;51.912;15.570;2023-12-29T20:57:49;0;0;0
76330;PMS7003;65148;51.912;15.570;2023-12-29T21:12:50;0;0;0
76330;PMS7003;65148;51.912;15.570;2023-12-29T21:28:09;3;0;0
76330;PMS7003;65148;51.912;15.570;2023-12-29T21:43:10;0;0;0
76330;PMS7003;65148;51.912;15.570;2023-12-29T21:58:11;0;0;0
76330;PMS7003;65148;51.912;15.570;2023-12-29T22:13:12;0;0;0
76330;PMS7003;65148;51.912;15.570;2023-12-29T22:28:32;0;0;0
76330;PMS7003;65148;51.912;15.570;2023-12-29T22:43:33;0;0;0
76330;PMS7003;65148;51.912;15.570;2023-12-29T22:58:34;1;0;0
76330;PMS7003;65148;51.912;15.570;2023-12-29T23:13:38;0;0;0
76330;PMS7003;65148;51.912;15.570;2023-12-29T23:28:55;0;0;0
76330;PMS7003;65148;51.912;15.570;2023-12-29T23:43:56;0;0;0
76330;PMS7003;65148;51.912;15.570;2023-12-29T23:58:57;0;0;0
